Time;durP1;ratioP1;P1;durP2;ratioP2;P2;SDS_P1;SDS_P2;PMS_P1;PMS_P2;Temp;Humidity;BMP_temperature;BMP_pressure;BME280_temperature;BME280_humidity;BME280_pressure;Samples;Min_cycle;Max_cycle;Signal;HPM_P1;HPM_P2
2022/11/21 00:00:21;;;;;;;7.65;6.85;;;;;;;-1.47;100.00;100408.19;5012229;28;20275;-46
2022/11/21 00:02:47;;;;;;;9.10;7.03;;;;;;;-1.46;100.00;100399.47;5011665;28;20179;-46
2022/11/21 00:05:12;;;;;;;8.02;6.60;;;;;;;-1.36;100.00;100403.84;5011336;28;20215;-46
2022/11/21 00:07:38;;;;;;;7.03;6.32;;;;;;;-1.38;100.00;100391.59;4974494;28;20613;-46
2022/11/21 00:10:04;;;;;;;8.60;7.00;;;;;;;-1.33;100.00;100398.63;4993293;28;20188;-46
2022/11/21 00:12:29;;;;;;;10.00;6.97;;;;;;;-1.45;100.00;100401.19;5010632;28;20652;-47
2022/11/21 00:14:55;;;;;;;7.93;6.80;;;;;;;-1.34;100.00;100393.38;5010488;28;20260;-46
2022/11/21 00:17:20;;;;;;;7.70;6.70;;;;;;;-1.33;100.00;100390.75;5011633;28;20689;-46
2022/11/21 00:19:46;;;;;;;8.32;7.50;;;;;;;-1.41;100.00;100399.47;5011549;28;20279;-45
2022/11/21 00:22:11;;;;;;;8.10;7.15;;;;;;;-1.46;100.00;100400.34;5012075;28;20180;-45
2022/11/21 00:24:37;;;;;;;10.68;7.22;;;;;;;-1.42;100.00;100389.81;4993915;28;20217;-47
2022/11/21 00:27:02;;;;;;;13.57;7.43;;;;;;;-1.31;100.00;100396.03;5009801;28;20196;-44
2022/11/21 00:29:28;;;;;;;7.70;6.97;;;;;;;-1.29;100.00;100392.50;5008934;28;20570;-45
2022/11/21 00:31:54;;;;;;;8.30;7.22;;;;;;;-1.29;100.00;100386.34;5013188;28;20208;-47
2022/11/21 00:34:19;;;;;;;9.18;8.27;;;;;;;-1.27;100.00;100393.41;5010617;28;20188;-46
2022/11/21 00:36:45;;;;;;;10.60;7.90;;;;;;;-1.28;100.00;100390.75;5011379;28;20205;-47
2022/11/21 00:39:10;;;;;;;10.40;7.80;;;;;;;-1.20;100.00;100386.41;5011711;28;20196;-48
2022/11/21 00:41:36;;;;;;;9.63;8.45;;;;;;;-1.18;100.00;100391.66;5011873;28;20713;-48
2022/11/21 00:44:01;;;;;;;10.18;8.32;;;;;;;-1.18;100.00;100392.53;5011432;28;20690;-48
2022/11/21 00:46:27;;;;;;;12.20;8.63;;;;;;;-1.12;100.00;100392.53;5010380;28;20300;-47
2022/11/21 00:48:52;;;;;;;10.82;8.65;;;;;;;-1.07;100.00;100390.81;5012244;28;20241;-46
2022/11/21 00:51:18;;;;;;;11.50;9.25;;;;;;;-1.05;100.00;100385.53;5012573;28;20199;-47
2022/11/21 00:53:43;;;;;;;9.35;8.32;;;;;;;-1.08;100.00;100388.16;5012398;28;20181;-47
2022/11/21 00:56:09;;;;;;;10.13;8.75;;;;;;;-1.10;100.00;100387.28;5011363;28;20176;-47
2022/11/21 00:58:34;;;;;;;9.85;8.75;;;;;;;-1.11;100.00;100378.53;5011213;28;20707;-46
2022/11/21 01:01:18;;;;;;;9.68;8.68;;;;;;;-1.11;100.00;100373.28;5011176;28;20196;-47
2022/11/21 01:03:45;;;;;;;10.02;8.95;;;;;;;-1.13;100.00;100380.28;5011733;28;20196;-47
2022/11/21 01:06:13;;;;;;;11.45;8.35;;;;;;;-1.09;100.00;100381.19;5011378;28;20200;-41
2022/11/21 01:08:42;;;;;;;10.88;8.63;;;;;;;-1.11;100.00;100377.66;5011620;28;20255;-44
2022/11/21 01:11:13;;;;;;;10.23;8.88;;;;;;;-1.10;100.00;100364.50;5011748;28;20180;-44
2022/11/21 01:13:39;;;;;;;12.45;9.43;;;;;;;-1.09;100.00;100368.03;5012045;28;20199;-47
2022/11/21 01:16:06;;;;;;;15.98;9.98;;;;;;;-1.01;100.00;100373.28;5011879;28;20189;-44
2022/11/21 01:18:33;;;;;;;12.25;10.15;;;;;;;-1.03;100.00;100368.00;5011919;28;20200;-47
2022/11/21 01:21:00;;;;;;;12.95;10.10;;;;;;;-0.96;100.00;100366.28;5012153;28;20558;-46
2022/11/21 01:23:27;;;;;;;12.23;9.73;;;;;;;-0.95;100.00;100366.28;5012147;28;20795;-44
2022/11/21 01:25:52;;;;;;;10.57;9.15;;;;;;;-0.91;100.00;100365.41;5011741;28;20205;-47
2022/11/21 01:28:18;;;;;;;11.05;9.77;;;;;;;-0.95;100.00;100368.91;5011713;28;20207;-44
2022/11/21 01:30:43;;;;;;;11.88;9.60;;;;;;;-0.91;100.00;100364.53;5011713;28;20183;-47
2022/11/21 01:33:09;;;;;;;12.57;9.68;;;;;;;-0.90;100.00;100371.53;5011686;28;20276;-46
2022/11/21 01:35:34;;;;;;;10.93;9.30;;;;;;;-0.97;100.00;100373.28;5011738;28;20196;-43
2022/11/21 01:38:00;;;;;;;11.95;9.77;;;;;;;-0.98;100.00;100363.66;5011173;28;20197;-44
2022/11/21 01:40:25;;;;;;;11.13;9.40;;;;;;;-1.01;100.00;100363.63;5011456;28;20238;-43
2022/11/21 01:43:02;;;;;;;13.32;10.25;;;;;;;-0.99;100.00;100361.88;5011505;28;20212;-47
2022/11/21 01:45:49;;;;;;;10.27;9.15;;;;;;;-0.99;100.00;100354.00;4998003;28;20632;-47
2022/11/21 01:48:15;;;;;;;13.57;9.45;;;;;;;-1.05;100.00;100352.25;5010453;28;20196;-45
2022/11/21 01:50:40;;;;;;;11.07;9.23;;;;;;;-0.97;100.00;100354.88;5007458;28;20667;-47
2022/11/21 01:53:06;;;;;;;11.38;9.50;;;;;;;-0.96;100.00;100358.38;5010291;28;20243;-47
2022/11/21 01:55:32;;;;;;;12.02;9.68;;;;;;;-0.93;100.00;100359.28;5010247;28;20224;-47
2022/11/21 01:57:58;;;;;;;11.07;9.40;;;;;;;-0.97;100.00;100352.25;5009500;28;20197;-47
2022/11/21 02:00:28;;;;;;;10.75;9.02;;;;;;;-0.93;100.00;100350.53;5010605;28;20192;-47
2022/11/21 02:02:59;;;;;;;11.45;9.02;;;;;;;-0.89;100.00;100357.53;5010067;28;20592;-48
2022/11/21 02:05:29;;;;;;;10.70;9.20;;;;;;;-0.87;100.00;100340.00;5009612;28;20720;-47
2022/11/21 02:08:01;;;;;;;11.02;8.27;;;;;;;-0.85;100.00;100341.75;5006201;28;20284;-47
2022/11/21 02:10:27;;;;;;;9.93;8.65;;;;;;;-0.91;100.00;100341.75;5009289;28;20202;-47
2022/11/21 02:12:55;;;;;;;11.20;8.10;;;;;;;-0.92;100.00;100345.28;5008571;28;20211;-47
2022/11/21 02:15:24;;;;;;;9.05;8.15;;;;;;;-0.94;100.00;100338.22;5010072;28;20595;-48
2022/11/21 02:17:50;;;;;;;11.43;8.60;;;;;;;-1.02;100.00;100345.25;5009907;28;20218;-49
2022/11/21 02:20:18;;;;;;;9.07;8.18;;;;;;;-1.00;100.00;100338.25;5010476;28;20177;-45
2022/11/21 02:22:43;;;;;;;10.05;8.75;;;;;;;-0.96;100.00;100345.25;5009177;28;20636;-46
2022/11/21 02:25:13;;;;;;;9.88;8.88;;;;;;;-1.04;100.00;100343.47;5009552;28;20259;-47
2022/11/21 02:27:39;;;;;;;8.85;7.95;;;;;;;-1.02;100.00;100340.00;5010107;28;20205;-46
2022/11/21 02:30:07;;;;;;;9.70;8.70;;;;;;;-1.06;100.00;100339.97;4990063;28;20195;-47
2022/11/21 02:32:40;;;;;;;10.00;9.05;;;;;;;-1.16;100.00;100338.22;5010027;28;20272;-46
2022/11/21 02:35:07;;;;;;;10.68;8.73;;;;;;;-1.19;100.00;100332.09;5006897;28;20215;-46
2022/11/21 02:37:35;;;;;;;10.30;8.88;;;;;;;-1.23;100.00;100330.31;5009410;28;20295;-47
2022/11/21 02:40:07;;;;;;;13.27;8.55;;;;;;;-1.23;100.00;100331.19;5010044;28;20195;-44
2022/11/21 02:42:40;;;;;;;9.32;8.23;;;;;;;-1.27;100.00;100326.78;4992727;28;20188;-43
2022/11/21 02:45:15;;;;;;;8.60;7.70;;;;;;;-1.31;100.00;100327.69;5010381;28;20677;-44
2022/11/21 02:47:43;;;;;;;10.50;8.80;;;;;;;-1.35;100.00;100323.31;5009545;28;20253;-45
2022/11/21 02:50:11;;;;;;;10.65;8.35;;;;;;;-1.39;100.00;100330.28;5010126;28;20168;-44
2022/11/21 02:52:37;;;;;;;8.88;7.97;;;;;;;-1.40;100.00;100320.66;5010315;28;20180;-44
2022/11/21 02:55:03;;;;;;;9.43;8.43;;;;;;;-1.41;100.00;100308.38;5009789;28;20172;-45
2022/11/21 02:57:29;;;;;;;12.07;8.70;;;;;;;-1.45;100.00;100310.13;5009716;28;20274;-46
2022/11/21 02:59:54;;;;;;;10.13;8.32;;;;;;;-1.43;100.00;100306.63;5009053;28;20216;-45
2022/11/21 03:02:20;;;;;;;11.30;8.02;;;;;;;-1.38;100.00;100297.00;5009514;28;20208;-42
2022/11/21 03:04:45;;;;;;;9.00;8.10;;;;;;;-1.40;100.00;100304.91;4992238;28;20291;-44
2022/11/21 03:07:11;;;;;;;8.80;7.65;;;;;;;-1.29;100.00;100297.00;5009135;28;20196;-44
2022/11/21 03:09:36;;;;;;;9.60;8.60;;;;;;;-1.35;100.00;100292.63;5009656;28;20296;-48
2022/11/21 03:12:09;;;;;;;11.60;8.65;;;;;;;-1.34;100.00;100304.00;4978918;28;20289;-44
2022/11/21 03:14:37;;;;;;;10.95;8.13;;;;;;;-1.36;100.00;100304.00;5013805;28;20226;-46
2022/11/21 03:17:03;;;;;;;10.23;8.30;;;;;;;-1.38;100.00;100295.25;5013368;28;20291;-45
2022/11/21 03:19:29;;;;;;;8.82;7.85;;;;;;;-1.32;100.00;100286.50;5013141;28;20211;-44
2022/11/21 03:21:55;;;;;;;9.00;8.10;;;;;;;-1.40;100.00;100277.72;5013620;28;20272;-46
2022/11/21 03:24:20;;;;;;;9.13;8.10;;;;;;;-1.35;100.00;100278.63;5013323;28;20203;-44
2022/11/21 03:26:46;;;;;;;9.07;8.18;;;;;;;-1.36;100.00;100287.38;5003555;28;20200;-44
2022/11/21 03:29:11;;;;;;;9.70;8.45;;;;;;;-1.41;100.00;100279.47;5013340;28;20195;-42
2022/11/21 03:31:37;;;;;;;9.38;8.38;;;;;;;-1.35;100.00;100276.88;5013287;28;20181;-43
2022/11/21 03:34:03;;;;;;;8.98;7.80;;;;;;;-1.33;100.00;100277.75;5013494;28;20177;-44
2022/11/21 03:36:28;;;;;;;10.18;8.13;;;;;;;-1.33;100.00;100287.38;5013408;28;20216;-43
2022/11/21 03:38:55;;;;;;;9.13;8.15;;;;;;;-1.36;100.00;100282.97;5013393;28;20171;-46
2022/11/21 03:41:30;;;;;;;12.05;8.57;;;;;;;-1.38;100.00;100279.47;5013442;28;20181;-43
2022/11/21 03:43:57;;;;;;;10.65;8.05;;;;;;;-1.30;100.00;100292.63;5013212;28;20200;-43
2022/11/21 03:46:23;;;;;;;10.13;8.50;;;;;;;-1.27;100.00;100288.28;4979393;28;20604;-44
2022/11/21 03:48:48;;;;;;;10.05;7.95;;;;;;;-1.32;100.00;100284.75;5013322;28;20173;-45
2022/11/21 03:51:14;;;;;;;8.30;7.38;;;;;;;-1.40;100.00;100277.72;5013338;28;20625;-48
2022/11/21 03:53:39;;;;;;;10.10;7.28;;;;;;;-1.41;100.00;100271.59;5013198;28;20168;-43
2022/11/21 03:56:05;;;;;;;7.80;7.05;;;;;;;-1.31;100.00;100276.00;5012956;28;20173;-44
2022/11/21 03:58:30;;;;;;;8.23;6.88;;;;;;;-1.38;100.00;100275.97;5013083;28;20723;-45
2022/11/21 04:00:56;;;;;;;7.28;6.50;;;;;;;-1.30;100.00;100280.38;5013107;28;20189;-43
2022/11/21 04:03:21;;;;;;;9.50;6.75;;;;;;;-1.25;100.00;100286.53;5012693;28;20173;-44
2022/11/21 04:05:47;;;;;;;6.80;6.10;;;;;;;-1.33;100.00;100280.38;5012952;28;20276;-44
2022/11/21 04:08:12;;;;;;;6.95;6.35;;;;;;;-1.31;100.00;100281.25;5012136;28;20223;-48
2022/11/21 04:10:38;;;;;;;8.13;5.70;;;;;;;-1.30;100.00;100272.47;5010859;28;20251;-48
2022/11/21 04:13:03;;;;;;;7.82;5.30;;;;;;;-1.23;100.00;100285.63;5012000;28;20180;-49
2022/11/21 04:15:29;;;;;;;5.97;5.38;;;;;;;-1.25;100.00;100283.00;5011268;28;20240;-48
2022/11/21 04:17:54;;;;;;;6.38;5.38;;;;;;;-1.26;100.00;100282.13;5011963;28;20196;-48
2022/11/21 04:20:20;;;;;;;6.60;5.80;;;;;;;-1.31;100.00;100290.91;4994000;28;20227;-48
2022/11/21 04:22:45;;;;;;;5.97;5.38;;;;;;;-1.34;100.00;100291.75;5010762;28;20603;-47
2022/11/21 04:25:12;;;;;;;6.72;5.78;;;;;;;-1.33;100.00;100282.13;5011053;28;20622;-48
2022/11/21 04:27:38;;;;;;;6.13;5.53;;;;;;;-1.29;100.00;100284.78;5009690;28;20692;-46
2022/11/21 04:30:04;;;;;;;7.45;5.28;;;;;;;-1.29;100.00;100286.50;5011609;28;20257;-46
2022/11/21 04:32:30;;;;;;;6.22;5.45;;;;;;;-1.37;100.00;100299.63;5010420;28;20219;-48
2022/11/21 04:34:55;;;;;;;7.30;6.55;;;;;;;-1.33;100.00;100290.03;5008026;28;20204;-47
2022/11/21 04:37:21;;;;;;;8.68;5.70;;;;;;;-1.45;100.00;100290.84;5011479;28;20192;-48
2022/11/21 04:39:46;;;;;;;7.63;5.32;;;;;;;-1.51;100.00;100289.13;5011004;28;20192;-50
2022/11/21 04:42:12;;;;;;;6.45;5.18;;;;;;;-1.50;100.00;100288.22;5011301;28;20617;-48
2022/11/21 04:44:37;;;;;;;6.82;5.13;;;;;;;-1.52;100.00;100289.09;5011292;28;20176;-49
2022/11/21 04:47:03;;;;;;;5.95;5.30;;;;;;;-1.45;100.00;100285.59;5010765;28;20212;-47
2022/11/21 04:49:28;;;;;;;6.03;5.43;;;;;;;-1.51;100.00;100283.84;5010042;28;20192;-48
2022/11/21 04:51:54;;;;;;;6.45;5.82;;;;;;;-1.56;100.00;100289.97;5010999;28;20181;-47
2022/11/21 04:54:19;;;;;;;7.45;6.07;;;;;;;-1.71;100.00;100283.78;5011119;28;20180;-49
2022/11/21 04:56:45;;;;;;;5.90;5.30;;;;;;;-1.73;100.00;100285.56;5009733;28;20700;-49
2022/11/21 04:59:11;;;;;;;6.78;6.07;;;;;;;-1.73;100.00;100284.66;5010688;28;20579;-47
2022/11/21 05:01:37;;;;;;;6.88;5.85;;;;;;;-1.74;100.00;100283.78;5010942;28;20184;-48
2022/11/21 05:04:03;;;;;;;8.13;6.00;;;;;;;-1.74;100.00;100283.78;5010785;28;20244;-46
2022/11/21 05:06:28;;;;;;;7.38;6.10;;;;;;;-1.70;100.00;100284.69;5010360;28;20274;-48
2022/11/21 05:08:54;;;;;;;6.47;5.88;;;;;;;-1.73;100.00;100288.19;5007981;28;20184;-48
2022/11/21 05:14:04;;;;;;;9.63;6.50;;;;;;;-1.80;100.00;100282.88;5009273;28;20196;-48
2022/11/21 05:16:32;;;;;;;8.43;6.45;;;;;;;-1.73;100.00;100285.56;5009791;28;20204;-47
2022/11/21 05:18:57;;;;;;;6.15;5.55;;;;;;;-1.71;100.00;100277.66;5010704;28;20649;-45
2022/11/21 05:21:23;;;;;;;6.53;5.82;;;;;;;-1.68;100.00;100277.69;5010729;28;20199;-46
2022/11/21 05:23:48;;;;;;;5.88;5.28;;;;;;;-1.63;100.00;100281.19;5010156;28;20184;-46
2022/11/21 05:26:14;;;;;;;6.47;5.88;;;;;;;-1.64;100.00;100276.81;5009824;28;20262;-47
2022/11/21 05:28:39;;;;;;;6.35;5.32;;;;;;;-1.62;100.00;100275.03;5010378;28;20185;-47
2022/11/21 05:31:05;;;;;;;6.22;5.63;;;;;;;-1.64;100.00;100275.91;5010405;28;20204;-47
2022/11/21 05:33:30;;;;;;;7.38;5.28;;;;;;;-1.54;100.00;100268.06;4994660;28;20181;-46
2022/11/21 05:35:56;;;;;;;8.25;4.80;;;;;;;-1.55;100.00;100271.59;5009525;28;20252;-46
2022/11/21 05:38:22;;;;;;;5.82;4.80;;;;;;;-1.57;100.00;100269.84;4992619;28;20685;-46
2022/11/21 05:40:47;;;;;;;5.93;5.30;;;;;;;-1.55;100.00;100260.19;5010281;28;20188;-46
2022/11/21 05:45:57;;;;;;;5.38;4.10;;;;;;;-1.53;100.00;100266.31;5005003;28;20428;-47
2022/11/21 05:48:22;;;;;;;4.80;4.40;;;;;;;-1.50;100.00;100264.56;5007150;28;20180;-46
2022/11/21 05:50:48;;;;;;;4.57;4.10;;;;;;;-1.44;100.00;100247.97;5010115;28;20181;-46
2022/11/21 05:53:14;;;;;;;4.85;4.00;;;;;;;-1.47;100.00;100258.44;5009843;28;20215;-47
2022/11/21 05:55:40;;;;;;;3.97;3.60;;;;;;;-1.47;100.00;100256.69;5006123;28;20172;-47
2022/11/21 05:58:07;;;;;;;5.00;4.28;;;;;;;-1.38;100.00;100254.97;5008339;28;20213;-47
2022/11/21 06:00:33;;;;;;;4.50;4.07;;;;;;;-1.39;100.00;100263.72;5009371;28;20195;-48
2022/11/21 06:05:43;;;;;;;4.97;4.00;;;;;;;-1.38;100.00;100254.97;5008284;28;20219;-47
2022/11/21 06:08:08;;;;;;;4.53;4.13;;;;;;;-1.44;100.00;100261.09;5009610;28;20208;-47
2022/11/21 06:10:34;;;;;;;6.35;4.60;;;;;;;-1.47;100.00;100256.69;5007081;28;20175;-49
2022/11/21 06:13:00;;;;;;;4.65;4.22;;;;;;;-1.43;100.00;100254.94;5009341;28;20215;-47
2022/11/21 06:15:26;;;;;;;5.97;4.78;;;;;;;-1.40;100.00;100249.72;5006941;28;20193;-47
2022/11/21 06:17:51;;;;;;;5.05;4.55;;;;;;;-1.44;100.00;100263.72;5009358;28;20203;-46
2022/11/21 06:20:17;;;;;;;5.47;4.60;;;;;;;-1.46;100.00;100266.34;5009564;28;20184;-47
2022/11/21 06:22:42;;;;;;;6.07;4.55;;;;;;;-1.45;100.00;100262.81;5009610;28;20181;-48
2022/11/21 06:25:09;;;;;;;5.22;4.72;;;;;;;-1.41;100.00;100262.84;5008599;28;20291;-49
2022/11/21 06:27:34;;;;;;;5.90;5.30;;;;;;;-1.46;100.00;100254.97;5009121;28;20193;-47
2022/11/21 06:30:00;;;;;;;5.10;4.60;;;;;;;-1.47;100.00;100255.81;5009525;28;20226;-49
2022/11/21 06:32:25;;;;;;;6.18;4.40;;;;;;;-1.45;100.00;100257.56;5009631;28;20192;-44
2022/11/21 06:34:50;;;;;;;5.63;4.68;;;;;;;-1.45;100.00;100261.97;5010264;28;20202;-44
2022/11/21 06:37:16;;;;;;;5.95;5.32;;;;;;;-1.44;100.00;100247.97;5009944;28;20399;-47
2022/11/21 06:39:41;;;;;;;7.60;5.47;;;;;;;-1.46;100.00;100242.69;4992570;28;20207;-44
2022/11/21 06:42:07;;;;;;;6.50;5.25;;;;;;;-1.39;100.00;100251.47;5010237;28;20185;-43
2022/11/21 06:44:33;;;;;;;5.35;4.85;;;;;;;-1.31;100.00;100244.47;5009486;28;20235;-46
2022/11/21 06:46:58;;;;;;;6.55;5.10;;;;;;;-1.37;100.00;100244.47;4992456;28;20248;-44
2022/11/21 06:49:24;;;;;;;5.65;5.15;;;;;;;-1.37;100.00;100239.19;5009676;28;20172;-45
2022/11/21 06:51:49;;;;;;;8.75;5.35;;;;;;;-1.33;100.00;100227.81;5010149;28;20153;-44
2022/11/21 06:54:15;;;;;;;7.03;5.57;;;;;;;-1.34;100.00;100231.31;4992206;28;20288;-48
2022/11/21 06:56:40;;;;;;;6.63;5.32;;;;;;;-1.44;100.00;100234.81;5009884;28;20276;-44
2022/11/21 06:59:06;;;;;;;7.25;5.40;;;;;;;-1.48;100.00;100235.69;5009661;28;20650;-44
2022/11/21 07:01:31;;;;;;;6.45;5.65;;;;;;;-1.45;100.00;100230.44;5009404;28;20219;-48
2022/11/21 07:03:57;;;;;;;6.22;4.88;;;;;;;-1.36;100.00;100243.56;5009718;28;20200;-44
2022/11/21 07:06:22;;;;;;;6.95;5.30;;;;;;;-1.41;100.00;100232.19;5009090;28;20209;-44
2022/11/21 07:08:52;;;;;;;7.82;5.40;;;;;;;-1.37;100.00;100244.47;5008843;28;20168;-47
2022/11/21 07:11:17;;;;;;;6.05;5.45;;;;;;;-1.34;100.00;100244.44;5008652;28;20560;-46
2022/11/21 07:13:43;;;;;;;8.02;5.88;;;;;;;-1.29;100.00;100247.97;5007694;28;20227;-48
2022/11/21 07:16:13;;;;;;;5.85;5.30;;;;;;;-1.31;100.00;100240.97;4990589;28;20161;-46
2022/11/21 07:18:39;;;;;;;5.57;5.07;;;;;;;-1.29;100.00;100232.22;5008388;28;20219;-45
2022/11/21 07:21:05;;;;;;;6.15;5.55;;;;;;;-1.26;100.00;100245.34;5008728;28;20192;-45
2022/11/21 07:23:32;;;;;;;6.10;5.50;;;;;;;-1.23;100.00;100248.84;5006796;28;20211;-46
2022/11/21 07:26:03;;;;;;;6.57;5.90;;;;;;;-1.20;100.00;100247.09;5007974;28;20234;-46
2022/11/21 07:28:29;;;;;;;8.25;6.18;;;;;;;-1.26;100.00;100229.56;5007237;28;20173;-45
2022/11/21 07:30:56;;;;;;;6.25;5.28;;;;;;;-1.22;100.00;100240.97;5008540;28;20185;-47
2022/11/21 07:33:21;;;;;;;6.15;5.35;;;;;;;-1.17;100.00;100238.34;5008601;28;20188;-46
2022/11/21 07:35:47;;;;;;;5.32;4.82;;;;;;;-1.18;100.00;100236.56;5008052;28;20207;-46
2022/11/21 07:38:12;;;;;;;6.03;5.35;;;;;;;-1.18;100.00;100239.19;5008312;28;20231;-47
2022/11/21 07:40:38;;;;;;;7.15;5.60;;;;;;;-1.17;100.00;100240.97;5004373;28;20231;-45
2022/11/21 07:43:05;;;;;;;8.13;5.32;;;;;;;-1.14;100.00;100241.81;5006200;28;20619;-47
2022/11/21 07:45:31;;;;;;;6.50;5.30;;;;;;;-1.13;100.00;100237.47;5005780;28;20284;-47
2022/11/21 07:48:01;;;;;;;6.70;5.85;;;;;;;-1.10;100.00;100235.69;4981864;28;20262;-47
2022/11/21 07:50:28;;;;;;;7.65;5.13;;;;;;;-1.09;100.00;100221.69;5002570;28;20288;-48
2022/11/21 07:53:01;;;;;;;6.28;5.38;;;;;;;-1.02;100.00;100222.56;5008039;28;20195;-49
2022/11/21 07:55:30;;;;;;;6.43;5.78;;;;;;;-1.02;100.00;100221.69;5008791;28;20256;-47
2022/11/21 07:57:58;;;;;;;6.93;5.68;;;;;;;-1.01;100.00;100226.91;5011228;28;20205;-47
2022/11/21 08:00:23;;;;;;;6.20;5.47;;;;;;;-1.00;100.00;100226.06;4992466;28;20220;-47
2022/11/21 08:02:50;;;;;;;6.75;5.57;;;;;;;-0.94;100.00;100222.53;5009618;28;20205;-48
2022/11/21 08:05:16;;;;;;;5.90;5.30;;;;;;;-0.89;100.00;100218.16;5012109;28;20562;-47
2022/11/21 08:07:41;;;;;;;5.65;5.07;;;;;;;-0.80;100.00;100223.41;5012319;28;20287;-48
2022/11/21 08:10:07;;;;;;;5.40;4.90;;;;;;;-0.79;100.00;100208.50;5007154;28;20530;-49
2022/11/21 08:12:32;;;;;;;5.45;4.20;;;;;;;-0.87;100.00;100217.28;5010917;28;20181;-47
2022/11/21 08:14:58;;;;;;;5.32;4.60;;;;;;;-0.82;100.00;100212.00;5005158;28;20645;-47
2022/11/21 08:17:26;;;;;;;4.35;3.95;;;;;;;-0.76;100.00;100211.13;5010958;28;20228;-47
2022/11/21 08:19:52;;;;;;;5.28;4.15;;;;;;;-0.74;100.00;100204.97;5010251;28;20184;-48
2022/11/21 08:22:17;;;;;;;5.80;5.30;;;;;;;-0.63;100.00;100204.97;5009851;28;20723;-49
2022/11/21 08:24:43;;;;;;;5.47;4.80;;;;;;;-0.67;100.00;100201.44;5010372;28;20172;-48
2022/11/21 08:27:08;;;;;;;4.68;3.90;;;;;;;-0.65;100.00;100201.47;5011904;28;20240;-48
2022/11/21 08:29:34;;;;;;;5.10;4.38;;;;;;;-0.55;100.00;100204.91;5011442;28;20189;-49
2022/11/21 08:32:00;;;;;;;6.28;4.22;;;;;;;-0.54;100.00;100196.16;5012079;28;20507;-49
2022/11/21 08:34:25;;;;;;;5.50;4.20;;;;;;;-0.50;100.00;100203.16;5008559;28;20191;-48
2022/11/21 08:36:52;;;;;;;5.00;4.60;;;;;;;-0.50;100.00;100201.41;5005326;28;20544;-47
2022/11/21 08:39:17;;;;;;;4.75;4.20;;;;;;;-0.48;100.00;100204.91;5009443;28;20190;-48
2022/11/21 08:42:01;;;;;;;4.70;4.10;;;;;;;-0.50;100.00;100201.41;5008888;28;20260;-47
2022/11/21 08:44:31;;;;;;;6.50;4.35;;;;;;;-0.46;100.00;100187.38;5011783;28;20381;-48
2022/11/21 08:46:57;;;;;;;6.05;4.38;;;;;;;-0.50;100.00;100204.03;5004970;28;20238;-48
2022/11/21 08:49:23;;;;;;;6.47;4.90;;;;;;;-0.41;100.00;100211.03;5008367;28;20235;-48
2022/11/21 08:51:48;;;;;;;5.30;4.20;;;;;;;-0.45;100.00;100199.63;5007966;28;20635;-48
2022/11/21 08:54:22;;;;;;;4.57;4.18;;;;;;;-0.42;100.00;100207.53;5010828;28;20187;-47
2022/11/21 08:56:48;;;;;;;7.85;4.25;;;;;;;-0.42;100.00;100201.38;5010448;28;20196;-46
2022/11/21 08:59:14;;;;;;;5.00;4.50;;;;;;;-0.43;100.00;100205.75;5011610;28;20731;-45
2022/11/21 09:01:40;;;;;;;4.68;4.22;;;;;;;-0.44;100.00;100197.88;4994453;28;20185;-48
2022/11/21 09:04:06;;;;;;;5.10;4.25;;;;;;;-0.38;100.00;100191.72;5012303;28;20154;-46
2022/11/21 09:06:32;;;;;;;6.55;4.50;;;;;;;-0.33;100.00;100195.19;5012094;28;20210;-46
2022/11/21 09:08:58;;;;;;;5.47;4.88;;;;;;;-0.38;100.00;100197.84;5011785;28;20195;-47
2022/11/21 09:11:26;;;;;;;5.20;4.05;;;;;;;-0.30;100.00;100195.19;5012370;28;20204;-43
2022/11/21 09:19:22;;;;;;;4.90;4.50;;;;;;;-0.20;100.00;100196.88;5012241;28;20212;-49
2022/11/21 09:21:49;;;;;;;7.32;5.15;;;;;;;-0.24;100.00;100203.03;5012262;28;20192;-45
2022/11/21 09:24:14;;;;;;;6.13;5.22;;;;;;;-0.19;100.00;100209.19;5012059;28;20176;-45
2022/11/21 09:26:40;;;;;;;7.68;6.05;;;;;;;-0.24;100.00;100209.22;5011757;28;20227;-44
2022/11/21 09:29:05;;;;;;;6.68;5.65;;;;;;;-0.23;100.00;100203.03;5012094;28;20188;-46
2022/11/21 09:31:31;;;;;;;6.03;5.43;;;;;;;-0.19;100.00;100203.91;5010580;28;20203;-48
2022/11/21 09:33:56;;;;;;;5.65;5.15;;;;;;;-0.19;100.00;100217.09;4993298;28;20234;-50
2022/11/21 09:36:22;;;;;;;6.65;5.63;;;;;;;-0.11;100.00;100202.13;5010522;28;20196;-48
2022/11/21 09:38:51;;;;;;;6.90;5.75;;;;;;;-0.12;100.00;100208.25;5010815;28;20180;-50
2022/11/21 09:41:53;;;;;;;6.88;6.07;;;;;;;-0.18;100.00;100208.28;5010885;28;20664;-49
2022/11/21 09:44:56;;;;;;;8.13;5.90;;;;;;;-0.04;100.00;100202.97;5003239;28;20254;-48
2022/11/21 09:47:34;;;;;;;6.28;5.65;;;;;;;0.01;100.00;100216.13;5003005;28;20267;-48
2022/11/21 09:50:06;;;;;;;7.60;6.80;;;;;;;0.01;100.00;100211.72;5010406;28;20188;-50
2022/11/21 09:52:48;;;;;;;6.57;5.88;;;;;;;-0.06;100.00;100204.75;5008648;28;20633;-49
2022/11/21 09:55:27;;;;;;;7.88;6.80;;;;;;;-0.09;100.00;100205.63;5010236;28;20346;-48
2022/11/21 09:57:52;;;;;;;8.57;6.97;;;;;;;-0.06;100.00;100207.38;5007748;28;20278;-49
2022/11/21 10:00:23;;;;;;;7.22;6.35;;;;;;;-0.04;100.00;100208.25;5008929;28;20566;-48
2022/11/21 10:02:50;;;;;;;7.28;6.50;;;;;;;0.02;100.00;100209.94;5008415;28;20185;-50
2022/11/21 10:05:16;;;;;;;8.55;7.47;;;;;;;-0.09;100.00;100210.91;5001869;28;20198;-47
2022/11/21 10:07:43;;;;;;;7.53;6.57;;;;;;;0.02;100.00;100212.59;4990320;28;20295;-47
2022/11/21 10:10:17;;;;;;;9.95;8.13;;;;;;;-0.02;100.00;100214.38;5007911;28;20181;-49
2022/11/21 10:12:58;;;;;;;15.55;10.63;;;;;;;-0.06;100.00;100215.28;5010332;28;20188;-48
2022/11/21 10:15:45;;;;;;;9.60;8.32;;;;;;;-0.11;100.00;100207.41;5006810;28;20239;-46
2022/11/21 10:18:26;;;;;;;11.75;10.07;;;;;;;-0.12;100.00;100200.38;5005707;28;20200;-49
2022/11/21 10:21:04;;;;;;;9.32;8.25;;;;;;;-0.17;100.00;100193.41;5007758;28;20180;-48
2022/11/21 10:24:07;;;;;;;10.35;8.18;;;;;;;-0.15;100.00;100196.88;5008644;28;20192;-48
2022/11/21 10:26:58;;;;;;;9.85;8.07;;;;;;;-0.05;100.00;100198.56;4991140;28;20228;-47
2022/11/21 10:29:32;;;;;;;10.30;8.18;;;;;;;0.03;100.00;100194.16;5006889;28;20196;-50
2022/11/21 10:32:09;;;;;;;10.38;8.80;;;;;;;0.03;100.00;100199.41;5003742;28;20228;-47
2022/11/21 10:34:37;;;;;;;8.77;7.72;;;;;;;0.04;100.00;100201.16;5009267;28;20172;-48
2022/11/21 10:37:13;;;;;;;13.10;8.82;;;;;;;0.10;100.00;100187.09;4990686;28;20208;-50
2022/11/21 10:40:22;;;;;;;10.75;9.18;;;;;;;0.07;100.00;100195.03;5009690;28;20214;-49
2022/11/21 10:42:56;;;;;;;9.35;8.05;;;;;;;0.03;100.00;100188.88;5009270;28;20282;-50
2022/11/21 10:45:23;;;;;;;11.57;9.30;;;;;;;0.07;100.00;100182.72;5009122;28;20680;-48
2022/11/21 10:47:50;;;;;;;9.77;8.75;;;;;;;0.08;100.00;100188.84;4992783;28;20689;-47
2022/11/21 10:50:37;;;;;;;10.32;9.32;;;;;;;0.13;100.00;100194.97;5006723;28;20180;-49
2022/11/21 10:56:07;;;;;;;10.40;9.18;;;;;;;0.08;100.00;100184.44;5007912;28;20243;-50
2022/11/21 10:58:46;;;;;;;10.55;9.45;;;;;;;0.07;100.00;100180.09;5005936;28;20193;-49
2022/11/21 11:01:33;;;;;;;11.10;9.65;;;;;;;0.14;100.00;100178.28;5004171;28;20303;-46
2022/11/21 11:04:08;;;;;;;11.98;9.63;;;;;;;0.13;100.00;100185.31;5009321;28;20208;-49
2022/11/21 11:06:41;;;;;;;10.13;9.05;;;;;;;0.17;100.00;100183.53;5004315;28;20212;-47
2022/11/21 11:09:31;;;;;;;9.98;9.00;;;;;;;0.15;100.00;100185.28;5008885;28;20234;-47
2022/11/21 11:15:23;;;;;;;10.18;9.05;;;;;;;0.27;100.00;100187.00;4978520;28;20204;-46
2022/11/21 11:17:53;;;;;;;10.93;9.50;;;;;;;0.26;100.00;100178.19;5009088;28;20710;-49
2022/11/21 11:20:34;;;;;;;9.93;8.93;;;;;;;0.32;100.00;100183.41;5009568;28;20238;-44
2022/11/21 11:22:59;;;;;;;14.40;9.50;;;;;;;0.34;100.00;100175.53;5009932;28;20188;-43
2022/11/21 11:25:25;;;;;;;11.15;9.48;;;;;;;0.41;100.00;100185.13;5009644;28;20197;-44
2022/11/21 11:27:50;;;;;;;10.48;9.38;;;;;;;0.36;100.00;100165.84;4992283;28;20207;-43
2022/11/21 11:30:18;;;;;;;9.65;8.52;;;;;;;0.33;100.00;100166.75;5010011;28;20526;-44
2022/11/21 11:32:44;;;;;;;10.50;9.07;;;;;;;0.33;100.00;100163.25;4994600;28;20185;-45
2022/11/21 11:35:12;;;;;;;10.60;8.63;;;;;;;0.41;100.00;100171.94;5013605;28;20530;-42
2022/11/21 11:37:42;;;;;;;14.48;9.35;;;;;;;0.41;100.00;100170.19;5013430;28;20531;-43